LDZDLDPL

Guest
Details From LDZD - ZADAR
To LDPL - Pula
Flight Number -
Tags generated
Created
Modified
Stats Distance 78 nm / 144 km
Max Altitude 10,100 ft / 3,078 m
Waypoints 3
Social Downloads 2
Likes 0
Share VATSIM

Download

Looking for another format? Having issues loading an existing format? Contact us
Advertisement - Login to hide

Notes

Basic altitude profile: - Ascent Rate: 1500ft/min - Ascent Speed: 200kts - Cruise Altitude: 15000ft - Cruise Speed: 220kts - Descent Rate: 1000ft/min - Descent Speed: 180kts Options: - Use NATs: yes - Use PACOTS: yes - Use low airways: yes - Use high airways: no

Route

LDZD EBITA LDPL

ID Type Via Altitude Latitude Longitude Leg Dist Tot Dist Heading (true) Name
O LDZD APT - 0 ft / 0 m 44.09723˚ 15.34798˚ - 0 nm - ZADAR
EBITA FIX - 10,100 ft / 3,078 m 44.38500˚ 14.76917˚ 30 nm 30 nm 305° / 305° -
O LDPL APT - 0 ft / 0 m 44.89353˚ 13.92216˚ 47 nm 77 nm 310° / 310° Pula

Altitude Profile

Advertisement - Login to hide

LDZD

Details ICAO LDZD (ZAD)
Name ZADAR
Region Croatia
Timezone Europe/Zagreb (UTC+2.0)
Stats Elevation 289 ft / 88 m (AMSL)
Location 44.097225° 15.347978°
Runways 2
Magnetic Variation 3.750° E

METAR

LDZD 271000Z 04005KT 330V120 9999 FEW050 28/15 Q1018 NOSIG

Decode

TAF

TAF LDZD 270525Z 2706/2806 VRB02KT CAVOK TX29/2712Z TN16/2803Z BECMG 2710/2712 30010KT BECMG 2716/2718 VRB02KT

Decode

Departure Runways

ID Width Length Bearing (true) Bearing (mag) Surface Threshold Offset Overrun Length
04 147 ft / 45 m 6,519 ft / 1,987 m 41.52° 37.77° Asphalt 0 ft / 0 m 0 ft / 0 m
14 147 ft / 45 m 8,159 ft / 2,487 m 135.79° 132.04° Asphalt 0 ft / 0 m 0 ft / 0 m
22 147 ft / 45 m 6,519 ft / 1,987 m 221.53° 217.78° Asphalt 0 ft / 0 m 0 ft / 0 m
32 147 ft / 45 m 8,159 ft / 2,487 m 315.81° 312.06° Asphalt 0 ft / 0 m 0 ft / 0 m

LDPL

Details ICAO LDPL (PUY)
Name Pula
Region Croatia
Timezone Europe/Zagreb (UTC+2.0)
Stats Elevation 274 ft / 84 m (AMSL)
Location 44.893531° 13.922156°
Runways 1
Magnetic Variation 3.524° E

METAR

LDPL 271000Z 12007KT 080V150 CAVOK 27/16 Q1019 NOSIG

Decode

TAF

TAF LDPL 270525Z 2706/2806 05005KT CAVOK TX28/2712Z TN18/2803Z BECMG 2710/2712 27006KT BECMG 2716/2718 VRB02KT

Decode

Destination Runways

ID Width Length Bearing (true) Bearing (mag) Surface Threshold Offset Overrun Length
09 148 ft / 45 m 9,601 ft / 2,926 m 88.24° 84.72° Asphalt 250 ft / 76 m 0 ft / 0 m
27 148 ft / 45 m 9,601 ft / 2,926 m 268.27° 264.75° Asphalt 250 ft / 76 m 0 ft / 0 m

Approach Navaids

Runway Type Ident Frequency Range Bearing (true) Bearing (mag) Slope Elevation
27 Localiser IPU 111.50 MHz 25 nm / 46 km 268.28° 264.76° - 157 ft / 48 m (AMSL)
27 Glidescope IPU 111.50 MHz 25 nm / 46 km 268.28° 264.76° 3.20° 243 ft / 74 m (AMSL)

Popular Alternatives